Time;durP1;ratioP1;P1;durP2;ratioP2;P2;SDS_P1;SDS_P2;PMS_P1;PMS_P2;Temp;Humidity;BMP_temperature;BMP_pressure;BME280_temperature;BME280_humidity;BME280_pressure;Samples;Min_cycle;Max_cycle;Signal;HPM_P1;HPM_P2
2022/01/03 00:00:19;;;;;;;0.63;0.63;;;8.60;99.90;;;;;;5029234;28;20050;-74
2022/01/03 00:02:46;;;;;;;5.45;1.40;;;8.60;99.90;;;;;;5029659;28;20138;-74
2022/01/03 00:05:13;;;;;;;0.85;0.63;;;8.60;99.90;;;;;;5027126;28;20048;-74
2022/01/03 00:07:43;;;;;;;5.15;1.33;;;8.70;99.90;;;;;;5022966;28;20099;-74
2022/01/03 00:10:10;;;;;;;4.13;1.38;;;8.70;99.90;;;;;;5029914;28;20051;-74
2022/01/03 00:12:37;;;;;;;4.30;1.33;;;8.70;99.90;;;;;;5028916;28;20045;-74
2022/01/03 00:15:06;;;;;;;1.00;0.90;;;8.80;99.90;;;;;;5026333;28;20477;-74
2022/01/03 00:17:32;;;;;;;8.85;1.38;;;8.80;99.90;;;;;;5040903;28;20120;-75
2022/01/03 00:19:57;;;;;;;4.00;1.48;;;8.90;99.90;;;;;;5029192;28;20140;-74
2022/01/03 00:22:24;;;;;;;6.30;1.83;;;8.90;99.90;;;;;;5029479;28;20045;-74
2022/01/03 00:25:03;;;;;;;9.40;2.00;;;9.00;99.90;;;;;;5027919;28;20041;-74
2022/01/03 00:27:38;;;;;;;10.15;2.60;;;9.00;99.90;;;;;;5028857;28;20071;-74
2022/01/03 00:30:05;;;;;;;11.85;2.08;;;9.10;99.90;;;;;;5009904;28;20125;-74
2022/01/03 00:32:34;;;;;;;12.30;2.03;;;9.10;99.90;;;;;;5056685;28;20103;-74
2022/01/03 00:35:00;;;;;;;20.35;2.83;;;9.10;99.90;;;;;;5012127;28;20045;-74
2022/01/03 00:37:27;;;;;;;5.82;2.05;;;9.10;99.90;;;;;;5029066;28;20490;-74
2022/01/03 00:39:54;;;;;;;4.10;1.40;;;9.10;99.90;;;;;;5017346;28;20049;-74
2022/01/03 00:42:21;;;;;;;8.40;1.60;;;9.10;99.90;;;;;;5029086;28;20095;-74
2022/01/03 00:44:48;;;;;;;5.45;1.40;;;9.10;99.90;;;;;;5028910;28;20045;-74
2022/01/03 00:47:15;;;;;;;18.73;1.10;;;9.10;99.90;;;;;;5028541;28;20049;-74
2022/01/03 00:49:41;;;;;;;6.35;1.60;;;9.20;99.90;;;;;;5024975;28;20088;-74
2022/01/03 00:52:07;;;;;;;8.65;1.45;;;9.10;99.90;;;;;;5027401;28;20068;-74
2022/01/03 00:54:32;;;;;;;13.30;3.00;;;9.10;99.90;;;;;;5028716;28;20041;-74
2022/01/03 00:57:17;;;;;;;14.43;2.22;;;9.10;99.90;;;;;;5024637;28;20045;-74
2022/01/03 00:59:46;;;;;;;11.60;2.42;;;9.00;99.90;;;;;;5028772;28;20103;-74
2022/01/03 01:02:13;;;;;;;16.13;3.25;;;9.00;99.90;;;;;;5029024;28;20107;-74
2022/01/03 01:04:44;;;;;;;18.75;4.68;;;9.00;99.90;;;;;;5011974;28;20042;-74
2022/01/03 01:07:11;;;;;;;14.00;2.53;;;9.10;99.90;;;;;;5035716;28;20528;-74
2022/01/03 01:09:39;;;;;;;14.20;2.45;;;9.10;99.90;;;;;;5028178;28;20080;-74
2022/01/03 01:12:06;;;;;;;9.63;1.73;;;9.10;99.90;;;;;;5028670;28;20046;-74
2022/01/03 01:14:32;;;;;;;14.43;2.70;;;9.10;99.90;;;;;;5028859;28;20081;-74
2022/01/03 01:16:58;;;;;;;10.75;2.25;;;9.10;99.90;;;;;;5014263;28;20050;-74
2022/01/03 01:19:26;;;;;;;3.22;1.17;;;9.10;99.90;;;;;;5011940;28;20047;-74
2022/01/03 01:21:53;;;;;;;19.50;3.13;;;9.10;99.90;;;;;;5028508;28;20041;-74
2022/01/03 01:24:22;;;;;;;12.38;2.95;;;9.10;99.90;;;;;;5014805;28;20128;-74
2022/01/03 01:29:35;;;;;;;13.35;2.45;;;9.10;99.90;;;;;;5029732;28;20576;-74
2022/01/03 01:32:03;;;;;;;16.23;2.88;;;9.10;99.90;;;;;;5038905;28;20049;-74
2022/01/03 01:34:33;;;;;;;11.10;2.47;;;9.20;99.90;;;;;;5033025;28;20045;-74
2022/01/03 01:37:00;;;;;;;31.52;3.90;;;9.20;99.90;;;;;;5032609;28;20128;-75
2022/01/03 01:39:29;;;;;;;7.78;2.33;;;9.20;99.90;;;;;;5025582;28;20453;-74
2022/01/03 01:41:57;;;;;;;5.93;1.40;;;9.30;99.90;;;;;;5063928;28;20035;-74
2022/01/03 01:44:24;;;;;;;26.55;1.92;;;9.30;99.90;;;;;;5015813;28;20894;-74
2022/01/03 01:46:56;;;;;;;6.47;2.20;;;9.30;99.90;;;;;;5031603;28;20048;-74
2022/01/03 01:49:25;;;;;;;9.25;2.83;;;9.30;99.90;;;;;;5028431;28;20052;-74
2022/01/03 01:52:02;;;;;;;12.93;2.80;;;9.30;99.90;;;;;;5015014;28;20518;-74
2022/01/03 01:54:34;;;;;;;19.15;4.05;;;9.30;99.90;;;;;;5032097;28;20041;-74
2022/01/03 01:57:05;;;;;;;7.07;1.70;;;9.40;99.90;;;;;;5031582;28;20056;-74
2022/01/03 01:59:44;;;;;;;20.30;3.53;;;9.40;99.90;;;;;;5024449;28;20120;-74
2022/01/03 02:02:16;;;;;;;11.75;2.50;;;9.40;99.90;;;;;;5035073;28;20038;-74
2022/01/03 02:04:48;;;;;;;9.02;2.25;;;9.40;99.90;;;;;;5031982;28;20046;-74
2022/01/03 02:07:38;;;;;;;12.15;2.70;;;9.40;99.90;;;;;;5023218;28;20034;-75
2022/01/03 02:10:06;;;;;;;13.60;3.67;;;9.50;99.90;;;;;;5031827;28;20041;-74
2022/01/03 02:12:38;;;;;;;4.88;1.38;;;9.50;99.90;;;;;;5031129;28;20045;-75
2022/01/03 02:15:08;;;;;;;24.55;3.92;;;9.50;99.90;;;;;;5011574;28;20053;-74
2022/01/03 02:17:34;;;;;;;23.55;2.60;;;9.50;99.90;;;;;;5030876;28;20046;-74
2022/01/03 02:20:15;;;;;;;6.18;1.98;;;9.50;99.90;;;;;;5031235;28;20427;-74
2022/01/03 02:22:42;;;;;;;12.60;2.50;;;9.50;99.90;;;;;;5029552;28;20033;-75
2022/01/03 02:25:10;;;;;;;15.80;2.88;;;9.50;99.90;;;;;;5025624;28;20110;-74
2022/01/03 02:27:37;;;;;;;17.55;3.22;;;9.40;99.90;;;;;;5031008;28;20041;-75
2022/01/03 02:30:10;;;;;;;14.93;2.60;;;9.40;99.90;;;;;;5025155;28;20064;-74
2022/01/03 02:32:36;;;;;;;10.85;2.40;;;9.40;99.90;;;;;;5031295;28;20041;-74
2022/01/03 02:35:03;;;;;;;10.43;1.00;;;9.40;99.90;;;;;;5030168;28;20080;-74
2022/01/03 02:37:28;;;;;;;13.98;2.33;;;9.40;99.90;;;;;;5030531;28;20033;-74
2022/01/03 02:39:55;;;;;;;19.70;3.40;;;9.40;99.90;;;;;;5014093;28;20046;-74
2022/01/03 02:42:25;;;;;;;13.80;2.25;;;9.30;99.90;;;;;;5030113;28;20064;-75
2022/01/03 02:45:09;;;;;;;22.38;3.45;;;9.30;99.90;;;;;;5031436;28;20087;-75
2022/01/03 02:47:36;;;;;;;14.55;2.13;;;9.20;99.90;;;;;;5030733;28;20068;-74
2022/01/03 02:50:03;;;;;;;14.52;2.40;;;9.20;99.90;;;;;;5030509;28;20398;-74
2022/01/03 02:52:28;;;;;;;13.85;4.63;;;9.20;99.90;;;;;;5030401;28;20123;-74
2022/01/03 02:54:54;;;;;;;28.13;4.43;;;9.20;99.90;;;;;;5030940;28;20124;-75
2022/01/03 02:57:23;;;;;;;8.80;2.28;;;9.10;99.90;;;;;;5026826;28;20045;-74
2022/01/03 02:59:59;;;;;;;10.65;2.30;;;9.10;99.90;;;;;;5031360;28;20426;-75
2022/01/03 03:02:26;;;;;;;16.92;2.60;;;9.20;99.90;;;;;;5030905;28;20045;-75
2022/01/03 03:05:00;;;;;;;16.52;3.10;;;9.20;99.90;;;;;;5031295;28;20103;-74
2022/01/03 03:07:28;;;;;;;26.77;3.70;;;9.10;99.90;;;;;;5020097;28;20042;-75
2022/01/03 03:09:55;;;;;;;13.98;2.53;;;9.10;99.90;;;;;;5030448;28;20068;-75
2022/01/03 03:12:22;;;;;;;16.58;2.20;;;9.10;99.90;;;;;;5030526;28;20041;-75
2022/01/03 03:14:48;;;;;;;19.45;4.20;;;9.10;99.90;;;;;;5025204;28;20040;-75
2022/01/03 03:17:17;;;;;;;14.50;2.75;;;9.00;99.90;;;;;;5059867;28;20570;-74
2022/01/03 03:20:09;;;;;;;27.15;3.78;;;9.00;99.90;;;;;;5020639;28;20045;-75
2022/01/03 03:22:35;;;;;;;15.70;3.37;;;9.00;99.90;;;;;;5033994;28;20457;-75
2022/01/03 03:25:05;;;;;;;12.85;2.72;;;9.00;99.90;;;;;;5030532;28;20048;-75
2022/01/03 03:27:31;;;;;;;25.70;3.25;;;9.00;99.90;;;;;;5029781;28;20436;-75
2022/01/03 03:29:58;;;;;;;15.75;2.97;;;9.00;99.90;;;;;;5020059;28;20104;-75
2022/01/03 03:32:25;;;;;;;20.85;2.17;;;8.90;99.90;;;;;;5028802;28;20068;-75
2022/01/03 03:34:51;;;;;;;11.85;2.83;;;8.90;99.90;;;;;;5025133;28;20041;-75
2022/01/03 03:37:17;;;;;;;25.25;3.88;;;8.90;99.90;;;;;;5013169;28;20532;-75
2022/01/03 03:39:44;;;;;;;12.77;2.47;;;8.80;99.90;;;;;;5023635;28;20132;-75
2022/01/03 03:42:10;;;;;;;19.80;2.92;;;8.80;99.90;;;;;;5029740;28;20107;-75
2022/01/03 03:44:37;;;;;;;15.00;3.42;;;8.80;99.90;;;;;;5017947;28;20041;-75
2022/01/03 03:47:05;;;;;;;10.45;2.05;;;8.80;99.90;;;;;;5029272;28;20103;-75
2022/01/03 03:49:32;;;;;;;14.50;2.67;;;8.90;99.90;;;;;;5029602;28;20114;-75
2022/01/03 03:51:58;;;;;;;22.80;2.90;;;8.90;99.90;;;;;;5027243;28;20053;-75
2022/01/03 03:54:24;;;;;;;18.20;3.15;;;8.80;99.90;;;;;;5044396;28;20128;-75
2022/01/03 03:56:50;;;;;;;14.07;3.45;;;8.90;99.90;;;;;;5025795;28;20052;-75
2022/01/03 03:59:16;;;;;;;19.10;2.80;;;8.80;99.90;;;;;;5029438;28;20418;-75
2022/01/03 04:01:42;;;;;;;14.75;4.05;;;8.80;99.90;;;;;;5029510;28;20572;-75
2022/01/03 04:04:07;;;;;;;12.05;2.97;;;8.80;99.90;;;;;;5028592;28;20057;-75
2022/01/03 04:06:34;;;;;;;13.85;3.20;;;8.80;99.90;;;;;;5024982;28;20041;-75
2022/01/03 04:09:00;;;;;;;22.40;2.95;;;8.80;99.90;;;;;;5029090;28;20120;-75
2022/01/03 04:11:26;;;;;;;10.90;2.60;;;8.80;99.90;;;;;;5029147;28;20038;-75
2022/01/03 04:13:51;;;;;;;9.25;1.90;;;8.90;99.90;;;;;;5024000;28;20049;-75
2022/01/03 04:16:17;;;;;;;13.32;2.42;;;9.00;99.90;;;;;;5028573;28;20791;-75
2022/01/03 04:18:43;;;;;;;8.52;2.55;;;9.00;99.90;;;;;;5029091;28;20045;-75
2022/01/03 04:21:09;;;;;;;18.42;3.10;;;9.00;99.90;;;;;;5029052;28;20045;-75
2022/01/03 04:23:35;;;;;;;7.75;2.65;;;9.00;99.90;;;;;;5019812;28;20450;-75
2022/01/03 04:26:04;;;;;;;10.02;2.17;;;9.10;99.90;;;;;;5026168;28;20064;-75
2022/01/03 04:28:30;;;;;;;14.02;1.70;;;9.10;99.90;;;;;;5029023;28;20120;-75
2022/01/03 04:30:56;;;;;;;28.90;3.97;;;9.00;99.90;;;;;;5019136;28;20806;-75
2022/01/03 04:33:21;;;;;;;21.85;2.85;;;9.00;99.90;;;;;;5028665;28;20049;-75
2022/01/03 04:35:47;;;;;;;15.95;3.45;;;9.00;99.90;;;;;;5028707;28;20045;-75
2022/01/03 04:38:13;;;;;;;1.33;1.10;;;9.00;99.90;;;;;;5028730;28;20453;-75
2022/01/03 04:40:39;;;;;;;10.68;3.33;;;9.00;99.90;;;;;;5017203;28;20046;-75
2022/01/03 04:43:04;;;;;;;7.20;2.10;;;9.00;99.90;;;;;;5028899;28;20052;-75
2022/01/03 04:45:30;;;;;;;19.98;3.53;;;9.00;99.90;;;;;;5028755;28;20120;-75
2022/01/03 04:47:56;;;;;;;31.52;5.75;;;9.00;99.90;;;;;;5029480;28;20033;-75
2022/01/03 04:50:22;;;;;;;21.52;4.20;;;9.00;99.90;;;;;;5027419;28;20046;-75
2022/01/03 04:52:48;;;;;;;19.35;3.28;;;9.10;99.90;;;;;;5028645;28;20441;-75
2022/01/03 04:55:14;;;;;;;22.48;4.20;;;9.10;99.90;;;;;;5028694;28;20391;-75
2022/01/03 04:57:40;;;;;;;13.23;2.63;;;9.10;99.90;;;;;;5045070;28;20107;-75
2022/01/03 05:00:07;;;;;;;7.43;1.08;;;9.10;99.90;;;;;;5020506;28;20417;-75
2022/01/03 05:02:33;;;;;;;10.85;2.63;;;9.10;99.90;;;;;;5029703;28;20056;-75
2022/01/03 05:04:59;;;;;;;23.85;3.28;;;9.10;99.90;;;;;;5033064;28;20037;-75
2022/01/03 05:07:25;;;;;;;14.98;2.70;;;9.10;99.90;;;;;;5029597;28;20038;-75
2022/01/03 05:09:50;;;;;;;15.35;3.13;;;9.10;99.90;;;;;;5057207;28;20052;-75
2022/01/03 05:12:17;;;;;;;25.33;2.60;;;9.10;99.90;;;;;;5031818;28;20045;-75
2022/01/03 05:14:43;;;;;;;12.30;2.00;;;9.10;99.90;;;;;;5031845;28;20058;-74
2022/01/03 05:17:09;;;;;;;18.92;4.35;;;9.10;99.90;;;;;;5031388;28;20508;-75
2022/01/03 05:19:35;;;;;;;8.07;2.92;;;9.00;99.90;;;;;;5019203;28;20045;-75
2022/01/03 05:22:01;;;;;;;14.10;3.22;;;9.00;99.90;;;;;;5032891;28;20041;-75
2022/01/03 05:24:27;;;;;;;26.23;5.22;;;9.00;99.90;;;;;;5029978;28;20076;-75
2022/01/03 05:26:53;;;;;;;20.52;2.92;;;9.00;99.90;;;;;;5031567;28;20068;-75
2022/01/03 05:29:19;;;;;;;10.55;2.20;;;9.10;99.90;;;;;;5014988;28;20124;-75
2022/01/03 05:31:44;;;;;;;12.70;2.53;;;9.10;99.90;;;;;;5057614;28;20055;-75
2022/01/03 05:34:10;;;;;;;15.57;3.38;;;9.00;99.90;;;;;;5032360;28;20099;-74
2022/01/03 05:36:36;;;;;;;29.52;4.38;;;9.00;99.90;;;;;;5032122;28;20120;-75
2022/01/03 05:39:02;;;;;;;23.83;3.58;;;9.10;99.90;;;;;;5015006;28;20049;-75
2022/01/03 05:41:29;;;;;;;26.08;3.17;;;9.00;99.90;;;;;;5032050;28;20034;-75
2022/01/03 05:43:56;;;;;;;19.63;4.18;;;9.00;99.90;;;;;;5032056;28;20048;-75
2022/01/03 05:46:22;;;;;;;11.93;2.83;;;9.00;99.90;;;;;;5033900;28;20033;-75
2022/01/03 05:48:48;;;;;;;5.75;2.03;;;9.00;99.90;;;;;;5058535;28;20042;-74
2022/01/03 05:51:14;;;;;;;16.42;2.60;;;9.10;99.90;;;;;;5018880;28;20050;-75
2022/01/03 05:53:40;;;;;;;2.92;0.88;;;9.10;99.90;;;;;;5032144;28;20060;-75
2022/01/03 05:56:05;;;;;;;15.52;3.08;;;9.10;99.90;;;;;;5025431;28;20037;-75
2022/01/03 05:58:31;;;;;;;12.80;2.42;;;9.10;99.90;;;;;;5031766;28;20041;-75
2022/01/03 06:00:57;;;;;;;26.27;4.35;;;9.00;99.90;;;;;;5027885;28;20041;-75
2022/01/03 06:03:24;;;;;;;23.83;4.13;;;9.00;99.90;;;;;;5028727;28;20117;-75
2022/01/03 06:06:16;;;;;;;10.82;2.08;;;9.10;99.90;;;;;;5031018;28;20142;-75
2022/01/03 06:08:39;;;;;;;4.53;1.55;;;9.10;99.90;;;;;;5031094;28;20053;-75
2022/01/03 06:11:05;;;;;;;19.52;4.15;;;9.00;99.90;;;;;;5062806;28;20045;-75
2022/01/03 06:13:31;;;;;;;24.67;4.05;;;9.00;99.90;;;;;;5032027;28;20052;-75
2022/01/03 06:15:57;;;;;;;4.97;1.08;;;9.00;99.90;;;;;;5014531;28;20049;-75
2022/01/03 06:18:24;;;;;;;10.60;2.20;;;9.00;99.90;;;;;;5015604;28;20513;-75
2022/01/03 06:20:51;;;;;;;14.55;2.13;;;8.90;99.90;;;;;;5026040;28;20038;-75
2022/01/03 06:23:19;;;;;;;6.50;1.95;;;8.90;99.90;;;;;;5031904;28;20425;-75
2022/01/03 06:25:46;;;;;;;0.32;0.32;;;8.90;99.90;;;;;;5026450;28;20130;-75
2022/01/03 06:28:12;;;;;;;5.72;1.30;;;8.90;99.90;;;;;;5031096;28;20033;-75
2022/01/03 06:30:39;;;;;;;11.38;2.58;;;8.90;99.90;;;;;;5019532;28;20045;-75
2022/01/03 06:33:06;;;;;;;20.45;2.92;;;8.90;99.90;;;;;;5045257;28;20046;-75
2022/01/03 06:35:33;;;;;;;19.02;2.47;;;8.80;99.90;;;;;;5022870;28;20048;-75
2022/01/03 06:38:00;;;;;;;8.30;3.42;;;8.80;99.90;;;;;;5015467;28;20041;-75
2022/01/03 06:40:26;;;;;;;14.75;3.38;;;8.70;99.90;;;;;;5043931;28;20422;-75
2022/01/03 06:42:52;;;;;;;14.05;3.05;;;8.70;99.90;;;;;;5019751;28;20037;-75
2022/01/03 06:45:19;;;;;;;15.43;4.07;;;8.70;99.90;;;;;;5029796;28;20041;-75
2022/01/03 06:47:44;;;;;;;5.57;1.85;;;8.70;99.90;;;;;;5023706;28;20038;-75
2022/01/03 06:50:10;;;;;;;5.40;1.83;;;8.70;99.90;;;;;;5029612;28;20390;-75
2022/01/03 06:52:37;;;;;;;15.38;2.38;;;8.60;99.90;;;;;;5046078;28;20041;-75
2022/01/03 06:55:04;;;;;;;8.77;1.90;;;8.60;99.90;;;;;;5030630;28;20049;-75
2022/01/03 06:57:30;;;;;;;34.63;3.10;;;8.60;99.90;;;;;;5013937;28;20068;-75
2022/01/03 06:59:56;;;;;;;2.30;1.85;;;8.60;99.90;;;;;;5028388;28;20054;-75
2022/01/03 07:02:22;;;;;;;14.80;3.35;;;8.60;99.90;;;;;;5038296;28;20610;-75
2022/01/03 07:04:48;;;;;;;40.50;5.47;;;8.60;99.90;;;;;;5013825;28;20498;-75
2022/01/03 07:07:14;;;;;;;8.32;0.90;;;8.60;99.90;;;;;;5024993;28;20042;-75
2022/01/03 07:09:40;;;;;;;1.60;0.73;;;8.70;99.90;;;;;;5032921;28;20478;-75
2022/01/03 07:12:06;;;;;;;16.35;2.10;;;8.70;99.90;;;;;;5017675;28;20045;-75
2022/01/03 07:19:57;;;;;;;10.02;2.38;;;8.70;99.90;;;;;;5030091;28;20406;-75
2022/01/03 07:22:25;;;;;;;17.60;2.60;;;8.70;99.90;;;;;;5021308;28;20140;-75
2022/01/03 07:24:52;;;;;;;10.52;2.58;;;8.70;99.90;;;;;;5039518;28;20116;-75
2022/01/03 07:27:18;;;;;;;19.75;3.25;;;8.70;99.90;;;;;;5029968;28;20037;-75
2022/01/03 07:29:44;;;;;;;21.52;3.67;;;8.70;99.90;;;;;;5028444;28;20041;-75
2022/01/03 07:32:10;;;;;;;13.13;3.75;;;8.70;99.90;;;;;;5030541;28;20437;-75
2022/01/03 07:34:37;;;;;;;10.65;2.08;;;8.70;99.90;;;;;;5028007;28;20067;-75
2022/01/03 07:37:03;;;;;;;16.10;2.85;;;8.70;99.90;;;;;;5012894;28;20060;-75
2022/01/03 07:39:30;;;;;;;20.42;1.75;;;8.70;99.90;;;;;;5035317;28;20045;-75
2022/01/03 07:41:58;;;;;;;28.42;4.75;;;8.60;99.90;;;;;;5029765;28;20045;-75
2022/01/03 07:44:24;;;;;;;10.80;2.55;;;8.60;99.90;;;;;;5025404;28;20386;-75
2022/01/03 07:46:49;;;;;;;20.95;4.63;;;8.60;99.90;;;;;;5029954;28;20048;-75
2022/01/03 07:49:15;;;;;;;14.90;2.58;;;8.70;99.90;;;;;;5030339;28;20069;-75
2022/01/03 07:51:41;;;;;;;30.48;4.10;;;8.70;99.90;;;;;;5030211;28;20409;-75
2022/01/03 07:54:07;;;;;;;7.72;2.63;;;8.70;99.90;;;;;;5018879;28;20052;-75
2022/01/03 07:56:33;;;;;;;9.75;2.30;;;8.80;99.90;;;;;;5029410;28;20107;-75
2022/01/03 07:58:59;;;;;;;12.48;3.20;;;8.80;99.90;;;;;;5029732;28;20536;-75
2022/01/03 08:01:25;;;;;;;16.02;2.40;;;8.90;99.90;;;;;;5024800;28;20046;-75
2022/01/03 08:03:51;;;;;;;2.10;1.40;;;8.90;99.90;;;;;;5029927;28;20041;-75
2022/01/03 08:06:18;;;;;;;24.98;4.28;;;9.00;99.90;;;;;;5028280;28;20076;-75
2022/01/03 08:08:44;;;;;;;9.10;0.98;;;9.00;99.90;;;;;;5029516;28;20404;-75
2022/01/03 08:11:09;;;;;;;16.92;3.15;;;9.10;99.90;;;;;;5016999;28;20045;-75
2022/01/03 08:13:35;;;;;;;6.72;1.60;;;9.10;99.90;;;;;;5009928;28;20636;-75
2022/01/03 08:16:01;;;;;;;20.25;3.03;;;9.10;99.90;;;;;;5048521;28;20124;-75
2022/01/03 08:18:28;;;;;;;22.58;3.53;;;9.20;99.90;;;;;;5009697;28;20042;-75
2022/01/03 08:20:53;;;;;;;24.98;4.28;;;9.30;99.90;;;;;;5008057;28;20037;-75
2022/01/03 08:23:20;;;;;;;15.85;3.40;;;9.30;99.90;;;;;;5030299;28;20371;-75
2022/01/03 08:25:45;;;;;;;7.60;1.65;;;9.30;99.90;;;;;;5049891;28;20112;-75
2022/01/03 08:28:12;;;;;;;21.00;4.00;;;9.40;99.90;;;;;;5018252;28;20482;-74
2022/01/03 08:30:38;;;;;;;8.45;1.75;;;9.40;99.90;;;;;;5015780;28;20030;-75
2022/01/03 08:33:04;;;;;;;13.43;3.45;;;9.40;99.90;;;;;;5009954;28;20061;-75
2022/01/03 08:35:31;;;;;;;31.33;5.70;;;9.40;99.90;;;;;;5023232;28;20045;-75
2022/01/03 08:37:57;;;;;;;19.67;3.03;;;9.40;99.90;;;;;;5023754;28;20076;-75
2022/01/03 08:40:24;;;;;;;4.43;1.10;;;9.40;99.90;;;;;;5041614;28;20037;-75
2022/01/03 08:42:51;;;;;;;9.18;2.88;;;9.40;99.90;;;;;;5055374;28;20080;-75
2022/01/03 08:45:18;;;;;;;27.25;3.42;;;9.40;99.90;;;;;;5020979;28;20150;-75
2022/01/03 08:47:44;;;;;;;18.67;3.10;;;9.40;99.90;;;;;;5045233;28;20052;-75
2022/01/03 08:50:11;;;;;;;4.75;1.55;;;9.40;99.90;;;;;;5029278;28;20080;-75
2022/01/03 08:52:37;;;;;;;20.60;3.10;;;9.40;99.90;;;;;;5024612;28;20049;-75
2022/01/03 08:55:04;;;;;;;18.45;2.15;;;9.40;99.90;;;;;;5023642;28;20170;-75
2022/01/03 08:57:30;;;;;;;4.93;1.08;;;9.50;99.90;;;;;;5019218;28;20685;-75
2022/01/03 08:59:56;;;;;;;5.50;1.95;;;9.50;99.90;;;;;;5028854;28;20045;-75
2022/01/03 09:02:22;;;;;;;26.95;4.57;;;9.60;99.90;;;;;;5028648;28;20461;-75
2022/01/03 09:04:48;;;;;;;7.05;1.98;;;9.60;99.90;;;;;;5028909;28;20095;-75
2022/01/03 09:07:14;;;;;;;11.80;2.65;;;9.60;99.90;;;;;;5025935;28;20041;-75
2022/01/03 09:09:40;;;;;;;16.55;3.25;;;9.60;99.90;;;;;;5028839;28;20785;-75
2022/01/03 09:12:07;;;;;;;16.77;3.42;;;9.60;99.90;;;;;;5027794;28;20045;-75
2022/01/03 09:14:36;;;;;;;24.10;3.95;;;9.60;99.90;;;;;;5029041;28;20045;-75
2022/01/03 09:17:02;;;;;;;18.60;3.50;;;9.70;99.90;;;;;;5019001;28;20041;-75
2022/01/03 09:19:29;;;;;;;15.50;3.17;;;9.70;99.90;;;;;;5028822;28;20073;-75
2022/01/03 09:22:05;;;;;;;13.63;2.20;;;9.70;99.90;;;;;;5028386;28;20037;-75
2022/01/03 09:24:43;;;;;;;11.90;2.20;;;9.70;99.90;;;;;;5039266;28;20038;-75
2022/01/03 09:29:57;;;;;;;17.48;2.13;;;9.70;99.90;;;;;;5027841;28;20056;-75
2022/01/03 09:32:22;;;;;;;24.83;4.38;;;9.80;99.90;;;;;;5028675;28;20048;-75
2022/01/03 09:34:48;;;;;;;23.77;3.53;;;9.80;99.90;;;;;;5028528;28;20049;-75
2022/01/03 09:37:19;;;;;;;21.90;2.85;;;9.70;99.90;;;;;;5028209;28;20095;-75
2022/01/03 09:39:46;;;;;;;1.25;1.05;;;9.70;99.90;;;;;;5015389;28;20133;-75
2022/01/03 09:42:14;;;;;;;3.28;1.63;;;9.90;99.90;;;;;;5011959;28;20091;-75
2022/01/03 09:44:44;;;;;;;22.92;3.53;;;9.90;99.90;;;;;;5030184;28;20124;-75
2022/01/03 09:47:14;;;;;;;13.15;2.47;;;9.90;99.90;;;;;;5027317;28;20084;-75
2022/01/03 09:49:40;;;;;;;9.93;2.75;;;9.80;99.90;;;;;;5043698;28;20049;-75
2022/01/03 09:52:07;;;;;;;19.20;2.80;;;9.80;99.90;;;;;;5027343;28;20042;-75
2022/01/03 09:54:35;;;;;;;26.40;3.65;;;9.90;99.90;;;;;;5039476;28;20694;-75
2022/01/03 09:57:03;;;;;;;18.55;4.65;;;9.90;99.90;;;;;;5014622;28;20452;-75
2022/01/03 09:59:30;;;;;;;18.58;3.80;;;9.90;99.90;;;;;;5040132;28;20092;-75
2022/01/03 10:01:56;;;;;;;6.18;3.05;;;9.90;99.90;;;;;;5031751;28;20175;-75
2022/01/03 10:04:22;;;;;;;8.90;1.58;;;9.90;99.90;;;;;;5014155;28;20041;-75
2022/01/03 10:06:49;;;;;;;13.43;2.30;;;9.90;99.90;;;;;;5014859;28;20037;-75
2022/01/03 10:09:15;;;;;;;6.47;1.75;;;9.90;99.90;;;;;;5052546;28;20066;-75
2022/01/03 10:11:40;;;;;;;12.07;3.03;;;9.90;99.90;;;;;;5044425;28;20718;-75
2022/01/03 10:14:06;;;;;;;14.32;2.60;;;9.90;99.90;;;;;;5030017;28;20127;-75
2022/01/03 10:16:32;;;;;;;20.55;3.70;;;10.00;99.90;;;;;;5031233;28;20041;-75
2022/01/03 10:18:58;;;;;;;23.23;3.30;;;10.00;99.90;;;;;;5026885;28;20038;-75
2022/01/03 10:21:43;;;;;;;20.02;3.03;;;10.10;99.90;;;;;;5027366;28;20408;-75
2022/01/03 10:24:11;;;;;;;20.77;3.20;;;10.20;99.90;;;;;;5026057;28;20042;-75
2022/01/03 10:26:38;;;;;;;7.50;2.33;;;10.30;99.90;;;;;;5031342;28;20098;-74
2022/01/03 10:29:19;;;;;;;8.13;1.15;;;10.40;99.90;;;;;;5015856;28;20421;-75
2022/01/03 10:31:48;;;;;;;15.90;2.20;;;10.50;99.90;;;;;;5017414;28;20042;-75
2022/01/03 10:34:16;;;;;;;5.30;1.27;;;10.50;99.90;;;;;;5018659;28;20164;-75
2022/01/03 10:36:43;;;;;;;18.85;3.00;;;10.60;99.90;;;;;;5030238;28;20045;-75
2022/01/03 10:39:19;;;;;;;2.50;1.52;;;10.70;99.90;;;;;;5013324;28;20402;-75
2022/01/03 10:41:47;;;;;;;17.88;3.45;;;10.70;99.90;;;;;;5031810;28;20379;-75
2022/01/03 10:44:31;;;;;;;20.17;3.85;;;10.70;99.90;;;;;;5013778;28;20041;-75
2022/01/03 10:46:57;;;;;;;2.40;1.25;;;10.70;99.90;;;;;;5031009;28;20048;-74
2022/01/03 10:49:26;;;;;;;10.65;1.88;;;10.70;99.90;;;;;;5030978;28;20049;-75
2022/01/03 10:52:09;;;;;;;6.25;1.75;;;10.70;99.90;;;;;;5028046;28;20456;-75
2022/01/03 10:54:35;;;;;;;2.38;0.85;;;10.60;99.90;;;;;;5052555;28;20120;-75
2022/01/03 10:57:00;;;;;;;1.65;1.17;;;10.60;99.90;;;;;;5030065;28;20573;-75
2022/01/03 10:59:30;;;;;;;12.00;1.98;;;10.60;99.90;;;;;;5029843;28;20073;-75
2022/01/03 11:02:00;;;;;;;18.35;3.33;;;10.70;99.90;;;;;;5030438;28;20037;-75
2022/01/03 11:04:30;;;;;;;18.58;4.60;;;10.70;99.90;;;;;;5031074;28;20041;-75
2022/01/03 11:13:13;;;;;;;15.93;2.17;;;10.80;99.90;;;;;;5030787;28;20041;-75
2022/01/03 11:15:42;;;;;;;18.35;2.88;;;10.90;99.90;;;;;;5029122;28;20045;-74
2022/01/03 11:18:21;;;;;;;2.25;0.75;;;10.90;99.90;;;;;;5030665;28;20060;-74
2022/01/03 11:21:04;;;;;;;8.57;1.92;;;10.90;99.90;;;;;;5029909;28;20041;-75
2022/01/03 11:23:30;;;;;;;2.78;1.00;;;11.00;99.90;;;;;;5025498;28;20686;-74
2022/01/03 11:25:56;;;;;;;10.27;2.40;;;11.00;99.90;;;;;;5030146;28;20475;-75
2022/01/03 11:28:26;;;;;;;6.13;1.42;;;11.10;99.90;;;;;;5030634;28;20106;-74
2022/01/03 11:30:53;;;;;;;4.05;1.48;;;11.10;99.90;;;;;;5020215;28;20037;-74
2022/01/03 11:33:20;;;;;;;12.20;1.95;;;11.20;99.90;;;;;;5023672;28;20052;-75
2022/01/03 11:35:50;;;;;;;7.30;3.85;;;11.20;99.90;;;;;;5013422;28;20045;-74
2022/01/03 11:38:22;;;;;;;15.30;1.98;;;11.20;99.90;;;;;;5035164;28;20128;-75
2022/01/03 11:40:48;;;;;;;9.10;2.10;;;11.20;99.90;;;;;;5017587;28;20069;-74
2022/01/03 11:43:15;;;;;;;11.63;2.95;;;11.20;99.90;;;;;;5030118;28;20121;-75
2022/01/03 11:45:41;;;;;;;5.90;1.45;;;11.30;99.90;;;;;;5029445;28;20073;-74
2022/01/03 11:48:11;;;;;;;7.15;1.98;;;11.30;99.90;;;;;;5024756;28;20084;-74
2022/01/03 11:50:38;;;;;;;0.98;0.95;;;11.30;99.90;;;;;;5029728;28;20060;-74
2022/01/03 11:53:08;;;;;;;13.57;1.30;;;11.20;99.90;;;;;;5046461;28;20045;-74
2022/01/03 11:55:35;;;;;;;24.88;4.15;;;11.20;99.90;;;;;;5028442;28;20099;-74
2022/01/03 11:58:13;;;;;;;9.68;2.05;;;11.30;99.90;;;;;;5062323;28;20448;-74
2022/01/03 12:03:42;;;;;;;14.70;2.15;;;11.40;99.90;;;;;;5028739;28;20045;-74
2022/01/03 12:06:09;;;;;;;7.65;2.42;;;11.40;99.90;;;;;;5051788;28;20402;-74
2022/01/03 12:08:40;;;;;;;9.15;2.58;;;11.40;99.90;;;;;;5029550;28;20378;-74
2022/01/03 12:11:32;;;;;;;15.60;2.90;;;11.30;99.90;;;;;;5029727;28;20037;-74
2022/01/03 12:14:10;;;;;;;1.63;1.20;;;11.10;99.90;;;;;;5008533;28;20065;-74
2022/01/03 12:17:04;;;;;;;6.72;1.88;;;11.00;99.90;;;;;;5024251;28;20549;-74
2022/01/03 12:19:37;;;;;;;14.10;2.70;;;11.00;99.90;;;;;;5029080;28;20052;-74
2022/01/03 12:22:06;;;;;;;18.95;3.50;;;10.90;99.90;;;;;;5029476;28;20521;-74
2022/01/03 12:24:32;;;;;;;15.30;4.80;;;11.00;99.90;;;;;;5022501;28;20045;-74
2022/01/03 12:27:10;;;;;;;12.48;0.93;;;11.00;99.90;;;;;;5029510;28;20516;-74
2022/01/03 12:29:54;;;;;;;15.68;2.72;;;11.10;99.90;;;;;;5026138;28;20045;-75
2022/01/03 12:32:40;;;;;;;5.03;1.77;;;11.30;99.90;;;;;;5043148;28;20045;-75
2022/01/03 12:35:16;;;;;;;15.80;3.38;;;11.30;99.90;;;;;;5034067;28;20045;-74
2022/01/03 12:37:54;;;;;;;4.32;2.13;;;11.30;99.90;;;;;;5028990;28;20124;-74
2022/01/03 12:40:32;;;;;;;14.20;2.67;;;11.20;99.90;;;;;;5028930;28;20068;-74
2022/01/03 12:43:06;;;;;;;2.75;1.40;;;11.20;99.90;;;;;;5029178;28;20042;-74
2022/01/03 12:45:32;;;;;;;6.97;2.47;;;11.20;99.90;;;;;;5028561;28;20083;-74
2022/01/03 12:48:10;;;;;;;16.15;3.08;;;11.20;99.90;;;;;;5022050;28;20560;-74
2022/01/03 12:50:51;;;;;;;20.63;2.70;;;11.20;99.90;;;;;;5045645;28;20132;-74
2022/01/03 12:53:26;;;;;;;23.42;2.42;;;11.20;99.90;;;;;;5027631;28;20053;-74
2022/01/03 12:56:13;;;;;;;2.40;1.15;;;11.20;99.90;;;;;;5027488;28;20045;-74
2022/01/03 12:58:48;;;;;;;22.05;3.15;;;11.20;99.90;;;;;;5021351;28;20081;-74
2022/01/03 13:01:16;;;;;;;3.38;1.00;;;11.10;99.90;;;;;;5027747;28;20064;-74
2022/01/03 13:03:47;;;;;;;13.98;2.72;;;11.10;99.90;;;;;;5029092;28;20131;-74
2022/01/03 13:06:25;;;;;;;10.80;2.25;;;11.00;99.90;;;;;;5025886;28;20065;-74
2022/01/03 13:08:53;;;;;;;15.93;2.50;;;11.00;99.90;;;;;;5029008;28;20453;-74
2022/01/03 13:11:25;;;;;;;10.70;4.28;;;11.00;99.90;;;;;;5028335;28;20073;-74
2022/01/03 13:13:56;;;;;;;5.20;1.08;;;10.90;99.90;;;;;;5028487;28;20037;-74